Rechercher aéroport 
image banner adimage banner adimage banner ad
image banner ad

C80 - New Coalinga Muni

Situé à Coalinga, United States

ICAO - C80, IATA -

Données fournies par Airmate  

Information générale

Coordonnées: N36°9'44" W120°17'41"
Élévation : 625 feet MSL.
Variation magnétique : 15° East
Voir autres Aéroports à California

Données opérationnelles

Special qualification required
Heure actuelle UTC:
Heure actuelle locale:
Météo à : KNLC - Lemoore Nas (Reeves Fld) ( 36 km )
METAR: KNLC 262256Z 08008KT 10SM FEW010 SCT200 37/07 A2984 RMK AO2 SLP102 FU FEW010 RH/15 T03720072
TAF: TAF KNLC 2623/2723 06008KT 9999 FEW010 SCT200 641609 652404 551809 532703 QNH2977INS TEMPO 2700/2706 VRB06KT FEW010 SCT100 BKN200 FM270600 VRB06KT 9999 SCT100 BKN200 641609 652404 551809 532703 QNH2975INS T19/2714Z T39/2723Z FS30012
Voir NOTAMs / SUP AIP / TFR affectant cet aéroport [VIEW]
Fréquences de communication: [VIEW]

Pistes:

Identifiant RWYQFULongueur (ft)Largeur (ft)SurfaceLDA (ft)
0112°247160OTHER
19191°247160OTHER
12130°5000100ASPH
30310°5000100ASPH

Coordonnées de l'aéroport

Adresse: Coalinga United States

Vue satellite de C80